TAF LELO
METAR LELO
LELO 091030Z 25012KT 230V290 9999 -RA OVC040 06/05 Q1016=
LELO 091000Z 26011KT 9999 -RA OVC040 06/04 Q1017=
LELO 090930Z 25010KT 9999 -RA OVC040 06/04 Q1017=
LELO 090900Z 26007KT 9999 -RA SCT040 OVC050 06/04 Q1017=
LELO 090830Z 25007KT 220V280 9999 -RA SCT035 OVC040 05/04 Q1017=
WC LELO
WS LELO
WV LELO